createdAt,value
2022-07-26T00:02:08.019Z,2.50
2022-07-26T00:12:10.540Z,3.20
2022-07-26T00:32:50.749Z,2.93
2022-07-26T00:42:52.546Z,2.40
2022-07-26T00:52:55.137Z,2.63
2022-07-26T01:02:58.537Z,3.07
2022-07-26T01:13:00.366Z,2.60
2022-07-26T01:23:02.161Z,2.43
2022-07-26T01:33:06.368Z,2.23
2022-07-26T01:43:08.630Z,2.90
2022-07-26T01:53:10.546Z,2.70
2022-07-26T02:03:12.312Z,2.77
2022-07-26T02:13:14.288Z,2.70
2022-07-26T02:23:15.973Z,2.83
2022-07-26T02:33:18.877Z,2.53
2022-07-26T02:43:20.550Z,2.57
2022-07-26T02:53:22.242Z,2.87
2022-07-26T03:03:23.954Z,2.97
2022-07-26T03:13:25.629Z,2.90
2022-07-26T03:23:27.400Z,3.47
2022-07-26T03:33:30.096Z,3.20
2022-07-26T03:43:31.742Z,3.00
2022-07-26T03:53:38.036Z,3.33
2022-07-26T04:03:43.286Z,2.93
2022-07-26T04:13:49.007Z,3.13
2022-07-26T04:23:51.892Z,3.50
2022-07-26T04:33:53.882Z,3.67
2022-07-26T04:43:56.241Z,3.53
2022-07-26T04:53:58.119Z,4.30
2022-07-26T05:03:59.773Z,3.67
2022-07-26T05:14:01.407Z,4.10
2022-07-26T05:24:03.114Z,4.13
2022-07-26T05:34:09.948Z,4.70
2022-07-26T05:44:11.875Z,4.00
2022-07-26T05:54:13.639Z,3.90
2022-07-26T06:04:15.542Z,5.20
2022-07-26T06:14:17.292Z,4.00
2022-07-26T06:24:18.991Z,3.67
2022-07-26T06:34:20.792Z,3.30
2022-07-26T06:44:22.891Z,2.80
2022-07-26T06:54:24.604Z,2.63
2022-07-26T07:04:26.460Z,2.60
2022-07-26T07:14:28.684Z,2.73
2022-07-26T07:24:30.492Z,2.27
2022-07-26T07:34:33.687Z,2.53
2022-07-26T07:44:35.329Z,3.13
2022-07-26T07:54:36.985Z,3.07
2022-07-26T08:04:38.835Z,2.20
2022-07-26T08:14:40.986Z,2.10
2022-07-26T08:24:45.573Z,1.83
2022-07-26T08:34:47.399Z,2.30
2022-07-26T08:44:50.050Z,2.00
2022-07-26T08:54:52.716Z,2.00
2022-07-26T09:05:04.171Z,1.80
2022-07-26T09:15:17.048Z,1.40
2022-07-26T09:25:23.595Z,1.57
2022-07-26T09:46:03.890Z,1.10
2022-07-26T09:56:05.962Z,1.30
2022-07-26T10:06:07.646Z,1.13
2022-07-26T10:16:29.541Z,1.20
2022-07-26T10:26:32.834Z,1.20
2022-07-26T10:36:39.472Z,1.20
2022-07-26T10:47:09.263Z,1.00
2022-07-26T10:57:11.001Z,1.10
2022-07-26T11:07:13.047Z,1.50
2022-07-26T11:17:29.004Z,1.30
2022-07-26T11:27:31.116Z,1.30
2022-07-26T11:37:32.836Z,1.30
2022-07-26T11:47:34.555Z,1.70
2022-07-26T11:57:36.484Z,1.40
2022-07-26T12:07:38.334Z,2.37
2022-07-26T12:17:58.340Z,1.37
2022-07-26T12:28:00.149Z,1.33
2022-07-26T12:38:02.814Z,1.30
2022-07-26T12:48:10.934Z,1.30
2022-07-26T12:58:12.612Z,1.43
2022-07-26T13:08:14.274Z,1.30
2022-07-26T13:18:15.932Z,1.30
2022-07-26T13:28:17.829Z,1.57
2022-07-26T13:38:20.229Z,1.30
2022-07-26T13:48:21.918Z,1.70
2022-07-26T13:58:23.582Z,3.73
2022-07-26T14:08:25.285Z,1.50
2022-07-26T14:18:26.927Z,1.80
2022-07-26T14:28:28.632Z,1.23
2022-07-26T14:38:30.622Z,1.70
2022-07-26T14:48:53.593Z,1.50
2022-07-26T14:58:53.919Z,1.60
2022-07-26T15:08:55.608Z,1.20
2022-07-26T15:18:57.359Z,1.40
2022-07-26T15:28:59.041Z,1.60
2022-07-26T15:39:14.732Z,1.57
2022-07-26T15:49:18.924Z,1.20
2022-07-26T15:59:20.672Z,2.00
2022-07-26T16:09:22.338Z,1.57
2022-07-26T16:19:24.054Z,1.60
2022-07-26T16:29:26.147Z,1.57
2022-07-26T16:39:27.823Z,1.30
2022-07-26T16:49:29.709Z,1.40
2022-07-26T16:59:31.490Z,1.20
2022-07-26T17:09:33.230Z,1.60
2022-07-26T17:19:34.904Z,1.50
2022-07-26T17:29:36.572Z,1.50
2022-07-26T17:39:52.235Z,1.50
2022-07-26T17:49:54.815Z,1.47
2022-07-26T17:59:56.477Z,1.50
2022-07-26T18:09:58.228Z,1.90
2022-07-26T18:19:59.961Z,1.60
2022-07-26T18:30:03.389Z,1.60
2022-07-26T18:40:05.861Z,1.30
2022-07-26T18:50:09.228Z,1.50
2022-07-26T19:00:16.970Z,1.80
2022-07-26T19:10:20.140Z,1.90
2022-07-26T19:20:21.914Z,1.70
2022-07-26T19:30:23.666Z,2.13
2022-07-26T19:40:25.450Z,1.70
2022-07-26T19:50:27.172Z,1.77
2022-07-26T20:00:29.376Z,2.63
2022-07-26T20:10:32.353Z,1.63
2022-07-26T20:20:34.353Z,2.63
2022-07-26T20:30:36.229Z,2.63
2022-07-26T20:40:38.162Z,2.33
2022-07-26T20:50:40.925Z,2.80
2022-07-26T21:00:42.838Z,3.30
2022-07-26T21:10:47.475Z,3.00
2022-07-26T21:20:49.178Z,3.33
2022-07-26T21:30:50.835Z,6.33
2022-07-26T21:40:52.530Z,3.70
2022-07-26T21:50:54.173Z,2.97
2022-07-26T22:01:06.201Z,2.73
2022-07-26T22:11:09.134Z,2.90
2022-07-26T22:21:11.237Z,3.03
2022-07-26T22:31:13.271Z,2.80
2022-07-26T22:41:15.045Z,2.93
2022-07-26T22:51:16.766Z,3.20
2022-07-26T23:01:18.806Z,2.90
2022-07-26T23:11:20.676Z,3.20
2022-07-26T23:21:22.381Z,2.90
2022-07-26T23:31:24.177Z,2.90
2022-07-26T23:41:26.560Z,3.13
2022-07-26T23:51:28.239Z,2.80
